Time,TemperatureF,DewpointF,PressureIn,WindDirection,WindDirectionDegrees,WindSpeedMPH,WindSpeedGustMPH,Humidity,HourlyPrecipIn,Conditions,Clouds,dailyrainin,SoftwareType,DateUTC
2013-08-19 00:00:00,62.1,53.0,30.04,NNE,30,0.0,1.0,71,0.00,,,0.00,weatherlink.com 1.10,2013-08-19 07:00:00,
2013-08-19 00:15:00,62.0,52.0,30.04,NNE,30,0.0,3.0,71,0.00,,,0.00,weatherlink.com 1.10,2013-08-19 07:15:00,
2013-08-19 00:30:00,62.0,53.0,30.04,NNE,30,0.0,3.0,72,0.00,,,0.00,weatherlink.com 1.10,2013-08-19 07:30:00,
2013-08-19 00:45:00,61.9,53.0,30.04,NNE,30,1.0,3.0,72,0.00,,,0.00,weatherlink.com 1.10,2013-08-19 07:45:00,
2013-08-19 01:05:00,62.0,53.0,30.03,NE,34,0.0,4.0,72,0.00,,,0.00,weatherlink.com 1.10,2013-08-19 08:05:00,
2013-08-19 01:16:00,62.0,53.0,30.03,NE,34,0.0,1.0,72,0.00,,,0.00,weatherlink.com 1.10,2013-08-19 08:16:00,
2013-08-19 01:31:00,61.8,53.0,30.03,NE,34,0.0,2.0,72,0.00,,,0.00,weatherlink.com 1.10,2013-08-19 08:31:00,
2013-08-19 01:46:00,62.0,53.0,30.03,NE,34,0.0,4.0,72,0.00,,,0.00,weatherlink.com 1.10,2013-08-19 08:46:00,
2013-08-19 02:01:00,62.0,53.0,30.03,NE,34,0.0,2.0,72,0.00,,,0.00,weatherlink.com 1.10,2013-08-19 09:01:00,
2013-08-19 02:16:00,61.9,53.0,30.02,NE,34,0.0,1.0,73,0.00,,,0.00,weatherlink.com 1.10,2013-08-19 09:16:00,
2013-08-19 02:31:00,61.7,53.0,30.02,NE,34,0.0,0.0,74,0.00,,,0.00,weatherlink.com 1.10,2013-08-19 09:31:00,
2013-08-19 02:46:00,61.6,53.0,30.03,NE,34,0.0,0.0,74,0.00,,,0.00,weatherlink.com 1.10,2013-08-19 09:46:00,
2013-08-19 03:01:00,61.7,53.0,30.03,NE,34,0.0,0.0,74,0.00,,,0.00,weatherlink.com 1.10,2013-08-19 10:01:00,
2013-08-19 03:16:00,61.6,53.0,30.02,NE,34,0.0,2.0,74,0.00,,,0.00,weatherlink.com 1.10,2013-08-19 10:16:00,
2013-08-19 03:31:00,61.5,54.0,30.02,NE,34,0.0,1.0,75,0.00,,,0.00,weatherlink.com 1.10,2013-08-19 10:31:00,
2013-08-19 03:46:00,61.3,53.0,30.02,NE,34,0.0,0.0,75,0.00,,,0.00,weatherlink.com 1.10,2013-08-19 10:46:00,
2013-08-19 04:01:00,61.2,53.0,30.03,NE,34,0.0,0.0,74,0.00,,,0.00,weatherlink.com 1.10,2013-08-19 11:01:00,
2013-08-19 04:16:00,61.0,53.0,30.02,NE,34,0.0,0.0,75,0.00,,,0.00,weatherlink.com 1.10,2013-08-19 11:16:00,
2013-08-19 04:31:00,60.9,53.0,30.03,NE,34,0.0,0.0,76,0.00,,,0.00,weatherlink.com 1.10,2013-08-19 11:31:00,
2013-08-19 04:46:00,60.9,54.0,30.03,NE,34,0.0,0.0,77,0.00,,,0.00,weatherlink.com 1.10,2013-08-19 11:46:00,
2013-08-19 05:01:00,61.0,54.0,30.03,NE,34,0.0,0.0,77,0.00,,,0.00,weatherlink.com 1.10,2013-08-19 12:01:00,
2013-08-19 05:16:00,60.8,54.0,30.03,NE,34,0.0,0.0,77,0.00,,,0.00,weatherlink.com 1.10,2013-08-19 12:16:00,
2013-08-19 05:31:00,60.4,53.0,30.03,NE,34,0.0,0.0,77,0.00,,,0.00,weatherlink.com 1.10,2013-08-19 12:31:00,
2013-08-19 05:46:00,60.0,53.0,30.03,NE,34,0.0,0.0,79,0.00,,,0.00,weatherlink.com 1.10,2013-08-19 12:46:00,
2013-08-19 06:01:00,59.8,53.0,30.03,NE,34,0.0,0.0,79,0.00,,,0.00,weatherlink.com 1.10,2013-08-19 13:01:00,
2013-08-19 06:16:00,59.9,54.0,30.04,NE,34,0.0,0.0,80,0.00,,,0.00,weatherlink.com 1.10,2013-08-19 13:16:00,
2013-08-19 06:31:00,60.0,54.0,30.04,NE,34,0.0,0.0,81,0.00,,,0.00,weatherlink.com 1.10,2013-08-19 13:31:00,
2013-08-19 06:46:00,60.2,54.0,30.04,NE,34,0.0,0.0,79,0.00,,,0.00,weatherlink.com 1.10,2013-08-19 13:46:00,
2013-08-19 07:01:00,60.4,54.0,30.04,NE,34,0.0,0.0,79,0.00,,,0.00,weatherlink.com 1.10,2013-08-19 14:01:00,
2013-08-19 07:16:00,60.8,54.0,30.05,NE,34,0.0,0.0,77,0.00,,,0.00,weatherlink.com 1.10,2013-08-19 14:16:00,
2013-08-19 07:31:00,61.3,55.0,30.05,NE,34,0.0,0.0,79,0.00,,,0.00,weatherlink.com 1.10,2013-08-19 14:31:00,
2013-08-19 07:46:00,61.8,55.0,30.05,NE,34,0.0,0.0,78,0.00,,,0.00,weatherlink.com 1.10,2013-08-19 14:46:00,
2013-08-19 08:01:00,62.3,55.0,30.04,NE,34,0.0,1.0,77,0.00,,,0.00,weatherlink.com 1.10,2013-08-19 15:01:00,
2013-08-19 08:16:00,62.3,55.0,30.04,NE,34,0.0,1.0,77,0.00,,,0.00,weatherlink.com 1.10,2013-08-19 15:16:00,
2013-08-19 08:31:00,62.7,56.0,30.05,SSW,200,1.0,4.0,80,0.00,,,0.00,weatherlink.com 1.10,2013-08-19 15:31:00,
2013-08-19 08:46:00,63.1,57.0,30.05,SSW,194,1.0,5.0,80,0.00,,,0.00,weatherlink.com 1.10,2013-08-19 15:46:00,
2013-08-19 09:01:00,63.0,57.0,30.05,South,189,2.0,10.0,80,0.00,,,0.00,weatherlink.com 1.10,2013-08-19 16:01:00,
2013-08-19 09:16:00,63.2,57.0,30.05,SSW,194,1.0,8.0,81,0.00,,,0.00,weatherlink.com 1.10,2013-08-19 16:16:00,
2013-08-19 09:31:00,63.6,58.0,30.05,SSW,194,0.0,5.0,81,0.00,,,0.00,weatherlink.com 1.10,2013-08-19 16:31:00,
2013-08-19 09:46:00,64.1,57.0,30.06,SSW,197,1.0,4.0,79,0.00,,,0.00,weatherlink.com 1.10,2013-08-19 16:46:00,
2013-08-19 10:01:00,64.5,58.0,30.05,South,191,0.0,6.0,78,0.00,,,0.00,weatherlink.com 1.10,2013-08-19 17:01:00,
2013-08-19 10:16:00,65.4,58.0,30.06,SSW,194,0.0,7.0,77,0.00,,,0.00,weatherlink.com 1.10,2013-08-19 17:16:00,
2013-08-19 10:31:00,66.6,58.0,30.06,SSE,163,2.0,7.0,73,0.00,,,0.00,weatherlink.com 1.10,2013-08-19 17:31:00,
2013-08-19 10:46:00,66.6,58.0,30.06,SSW,192,6.0,11.0,74,0.00,,,0.00,weatherlink.com 1.10,2013-08-19 17:46:00,
2013-08-19 11:01:00,66.9,58.0,30.06,South,182,2.0,10.0,74,0.00,,,0.00,weatherlink.com 1.10,2013-08-19 18:01:00,
2013-08-19 11:16:00,67.4,58.0,30.06,South,191,0.0,11.0,72,0.00,,,0.00,weatherlink.com 1.10,2013-08-19 18:16:00,
2013-08-19 11:31:00,68.0,58.0,30.06,South,186,5.0,10.0,71,0.00,,,0.00,weatherlink.com 1.10,2013-08-19 18:31:00,
2013-08-19 11:47:00,68.7,59.0,30.06,SSE,163,0.0,12.0,71,0.00,,,0.00,weatherlink.com 1.10,2013-08-19 18:47:00,
2013-08-19 12:02:00,69.4,58.0,30.07,SSW,211,3.0,8.0,68,0.00,,,0.00,weatherlink.com 1.10,2013-08-19 19:02:00,
2013-08-19 12:17:00,69.0,58.0,30.06,SSW,201,3.0,9.0,68,0.00,,,0.00,weatherlink.com 1.10,2013-08-19 19:17:00,
2013-08-19 12:32:00,70.3,57.0,30.06,SW,223,5.0,11.0,64,0.00,,,0.00,weatherlink.com 1.10,2013-08-19 19:32:00,
2013-08-19 12:47:00,70.8,58.0,30.06,SSW,207,5.0,10.0,64,0.00,,,0.00,weatherlink.com 1.10,2013-08-19 19:47:00,
2013-08-19 13:02:00,71.2,56.0,30.06,SW,234,4.0,11.0,60,0.00,,,0.00,weatherlink.com 1.10,2013-08-19 20:02:00,
2013-08-19 13:17:00,71.8,57.0,30.06,SSW,205,4.0,10.0,61,0.00,,,0.00,weatherlink.com 1.10,2013-08-19 20:17:00,
2013-08-19 13:32:00,72.3,58.0,30.06,SSW,194,7.0,12.0,62,0.00,,,0.00,weatherlink.com 1.10,2013-08-19 20:32:00,
2013-08-19 13:47:00,72.9,58.0,30.05,South,190,3.0,11.0,60,0.00,,,0.00,weatherlink.com 1.10,2013-08-19 20:47:00,
2013-08-19 14:02:00,73.6,58.0,30.05,WSW,244,7.0,8.0,58,0.00,,,0.00,weatherlink.com 1.10,2013-08-19 21:02:00,
2013-08-19 14:17:00,73.5,58.0,30.05,SSW,194,4.0,9.0,58,0.00,,,0.00,weatherlink.com 1.10,2013-08-19 21:17:00,
2013-08-19 14:32:00,74.2,58.0,30.05,WSW,243,7.0,7.0,57,0.00,,,0.00,weatherlink.com 1.10,2013-08-19 21:32:00,
2013-08-19 14:47:00,74.7,58.0,30.05,South,187,1.0,9.0,56,0.00,,,0.00,weatherlink.com 1.10,2013-08-19 21:47:00,
2013-08-19 15:02:00,75.3,58.0,30.04,WSW,257,2.0,8.0,56,0.00,,,0.00,weatherlink.com 1.10,2013-08-19 22:02:00,
2013-08-19 15:17:00,75.1,58.0,30.04,West,281,2.0,6.0,56,0.00,,,0.00,weatherlink.com 1.10,2013-08-19 22:17:00,
2013-08-19 15:32:00,76.1,59.0,30.04,WSW,238,2.0,9.0,55,0.00,,,0.00,weatherlink.com 1.10,2013-08-19 22:32:00,
2013-08-19 15:47:00,76.4,59.0,30.03,SW,223,5.0,8.0,55,0.00,,,0.00,weatherlink.com 1.10,2013-08-19 22:47:00,
2013-08-19 16:02:00,76.4,59.0,30.03,West,261,4.0,9.0,55,0.00,,,0.00,weatherlink.com 1.10,2013-08-19 23:02:00,
2013-08-19 16:17:00,76.1,59.0,30.03,West,281,2.0,7.0,55,0.00,,,0.00,weatherlink.com 1.10,2013-08-19 23:17:00,
2013-08-19 16:32:00,75.4,58.0,30.02,South,189,3.0,5.0,56,0.00,,,0.00,weatherlink.com 1.10,2013-08-19 23:32:00,
2013-08-19 16:47:00,75.2,58.0,30.02,SSW,203,0.0,6.0,56,0.00,,,0.00,weatherlink.com 1.10,2013-08-19 23:47:00,
2013-08-19 17:02:00,74.7,59.0,30.02,WSW,246,3.0,6.0,58,0.00,,,0.00,weatherlink.com 1.10,2013-08-20 00:02:00,
2013-08-19 17:17:00,75.8,59.0,30.02,WSW,252,2.0,11.0,56,0.00,,,0.00,weatherlink.com 1.10,2013-08-20 00:17:00,
2013-08-19 17:32:00,74.9,59.0,30.02,North,5,0.0,10.0,58,0.00,,,0.00,weatherlink.com 1.10,2013-08-20 00:32:00,
2013-08-19 17:47:00,75.4,58.0,30.02,WNW,283,3.0,10.0,56,0.00,,,0.00,weatherlink.com 1.10,2013-08-20 00:47:00,
2013-08-19 18:02:00,74.4,58.0,30.02,NNW,327,6.0,12.0,57,0.00,,,0.00,weatherlink.com 1.10,2013-08-20 01:02:00,
2013-08-19 18:17:00,73.0,58.0,30.02,West,266,3.0,9.0,59,0.00,,,0.00,weatherlink.com 1.10,2013-08-20 01:17:00,
2013-08-19 18:32:00,72.5,58.0,30.02,WNW,297,2.0,11.0,60,0.00,,,0.00,weatherlink.com 1.10,2013-08-20 01:32:00,
2013-08-19 18:47:00,71.6,57.0,30.02,NNW,342,4.0,11.0,61,0.00,,,0.00,weatherlink.com 1.10,2013-08-20 01:47:00,
2013-08-19 19:02:00,70.1,57.0,30.02,NW,308,7.0,11.0,63,0.00,,,0.00,weatherlink.com 1.10,2013-08-20 02:02:00,
2013-08-19 19:17:00,69.2,55.0,30.02,NNW,346,2.0,12.0,62,0.00,,,0.00,weatherlink.com 1.10,2013-08-20 02:17:00,
2013-08-19 19:32:00,68.3,54.0,30.02,NNE,29,7.0,12.0,60,0.00,,,0.00,weatherlink.com 1.10,2013-08-20 02:32:00,
2013-08-19 19:47:00,67.5,53.0,30.02,NW,315,6.0,8.0,60,0.00,,,0.00,weatherlink.com 1.10,2013-08-20 02:47:00,
2013-08-19 20:02:00,66.4,52.0,30.03,NNW,341,4.0,8.0,61,0.00,,,0.00,weatherlink.com 1.10,2013-08-20 03:02:00,
2013-08-19 20:17:00,65.8,53.0,30.03,NNW,339,4.0,6.0,63,0.00,,,0.00,weatherlink.com 1.10,2013-08-20 03:17:00,
2013-08-19 20:32:00,65.2,53.0,30.04,NW,317,4.0,4.0,65,0.00,,,0.00,weatherlink.com 1.10,2013-08-20 03:32:00,
2013-08-19 20:47:00,64.4,53.0,30.04,North,355,0.0,8.0,67,0.00,,,0.00,weatherlink.com 1.10,2013-08-20 03:47:00,
2013-08-19 21:02:00,63.7,52.0,30.04,NW,320,2.0,8.0,67,0.00,,,0.00,weatherlink.com 1.10,2013-08-20 04:02:00,
2013-08-19 21:17:00,62.7,52.0,30.05,NE,46,6.0,11.0,69,0.00,,,0.00,weatherlink.com 1.10,2013-08-20 04:17:00,
2013-08-19 21:32:00,61.8,52.0,30.05,North,5,4.0,6.0,70,0.00,,,0.00,weatherlink.com 1.10,2013-08-20 04:32:00,
2013-08-19 21:47:00,61.3,51.0,30.05,North,355,0.0,5.0,70,0.00,,,0.00,weatherlink.com 1.10,2013-08-20 04:47:00,
2013-08-19 22:02:00,61.3,52.0,30.05,NNE,28,6.0,9.0,71,0.00,,,0.00,weatherlink.com 1.10,2013-08-20 05:02:00,
2013-08-19 22:17:00,61.2,51.0,30.05,NNE,13,2.0,11.0,70,0.00,,,0.00,weatherlink.com 1.10,2013-08-20 05:17:00,
2013-08-19 22:32:00,60.9,51.0,30.05,North,11,6.0,12.0,70,0.00,,,0.00,weatherlink.com 1.10,2013-08-20 05:32:00,
2013-08-19 22:47:00,61.0,51.0,30.06,North,360,1.0,7.0,70,0.00,,,0.00,weatherlink.com 1.10,2013-08-20 05:47:00,
2013-08-19 23:02:00,60.9,51.0,30.06,North,355,0.0,6.0,70,0.00,,,0.00,weatherlink.com 1.10,2013-08-20 06:02:00,
2013-08-19 23:17:00,60.8,51.0,30.07,NNE,29,4.0,6.0,70,0.00,,,0.00,weatherlink.com 1.10,2013-08-20 06:17:00,
2013-08-19 23:32:00,60.7,51.0,30.07,NNE,30,2.0,6.0,71,0.00,,,0.00,weatherlink.com 1.10,2013-08-20 06:32:00,
2013-08-19 23:47:00,60.8,51.0,30.08,NNE,26,5.0,7.0,70,0.00,,,0.00,weatherlink.com 1.10,2013-08-20 06:47:00,